Saint Simons Island, Georgia
Current Conditions -  °F | °C
As of 10:53 PM on Thursday 27 Nov 2014 (Local Time) from KSSI Reporting Station
Clear Clear  
Wind Chill: 40°   Ceiling: Unl
Heat Index: 45°   Visibility: 10mi
Dew Point: 32°   Wind: 9mph
Humidity: 60%   Direction: 320°NW
Pressure: 30.33"   Gusts: NA
Location:  31.15°N, 81.38°W
Report Text: KSSI 280353Z AUTO 32008KT 10SM CLR 07/00 A3033 RMK AO2 SLP270 T00720000
Loading
Personal Weather Stations






























Interactive Weather Map New forecast layout! Learn more

10-Day Weather Forecast

Advertisements
Track Severe Weather on mobile